Airfield :
LOGIN :

Register | Disclaimer

   EN    FR    IT 

 










Legend :    VFR   Marginal VFR   IFR   Intensive IFR   Very Intensive IFR
Visi :
Ceiling :
>= 8 km
>= 3000ft
5 to 8 km
1000 to 3000 ft
1500m to 5 km
500 to 1000 ft
800 to 1500m
200 to 500 ft
< 800m
< 200 ft
Symbols :   Thunderstorms  Fog  Heavy snow  Heavy precipitations  Wind > 20 kt
SIGMETs :     Misc.  Thunderstorms  Icing  Turbulence  Mountain Waves  Volcanic Ashes







- Airport Elevation : 144 ft
- IATA code : PGF
- Download approach charts


LFMP - Perpignan

CURRENT METAR :
  • 200730Z AUTO 33006KT 290V010 9999 NCD 24/16 Q1014 NOSIG

EXPIRED METARs :
  • 200700Z AUTO 31006KT 280V340 9999 NCD 23/16 Q1014 NOSIG
  • 200630Z AUTO 31006KT 280V340 9999 NCD 23/16 Q1014 NOSIG
  • 200600Z AUTO 29007KT 260V330 9999 NCD 22/15 Q1014 NOSIG
  • 200530Z AUTO 31007KT 9999 FEW066/// SCT140/// BKN200/// 22/16 Q1014 NOSIG
  • 200500Z AUTO 26003KT 220V310 9999 SCT068/// BKN140/// 20/17 Q1014 NOSIG
  • 200430Z AUTO VRB03KT 9999 SCT068/// BKN110/// BKN140/// ///TCU 19/18 Q1014 BECMG SCT006 BKN070

TAF TAF LFMP
Valid from the 20 at 03:00 until the 21 at 03:00 UTC


200200Z 2003/2103 32007KT 9999 SCT006 BKN070
BECMG 2011/2014 SCT045TCU
TEMPO 2014/2020 31010G20KT -SHRA BKN030TCU
PROB30
TEMPO 2015/2019 4000 TSRA BKN025CB
ATIS : +33 4 68 63 75 12
No reported NOTAMs for that airfield.
2 SIGMETs reported for the Marseille FIR (LFMM) :
 
SIGMET 2  cancelation
LFMM SIGMET 3 VALID 200705/200800 LFPW
LFMM MARSEILLE FIR/UIR CNL SIGMET 2 200600/200800=
SIGMET 2  CANCELED :
Embedded thunderstorms
LFMM SIGMET 2 VALID 200600/200800 LFPW
LFMM MARSEILLE FIR/UIR EMBD TS OBS WI N4500 E00445 - N4615 E00600 - N4600 E00645 - N4430 E00530 - N4500 E00445 TOP FL320 MOV NE 20KT NC=



MET'MAP, your aeronautical weather chart ! - Copyright ORBIFLY December 2007 - Disclaimer

ORBIFLY MET'MAP TEAM :

Programming & Development : Alexandra Zaïnal
Concept & Development : Baudouin d'Aumeries
Co-Development & Prog : Marc-Olivier Méhu
Technical & hardware support : Manuel Goepfert

Contact : metmap@orbifly.com




SOURCES & CREDITS :

   NOAA